• Join FlightAware (Why Join?)
  • Login
  • US Flag 
09:03PM EDT


 

Airport Tracker/Info


-or-


 

Live Flight TrackerFlight Track Log ✈ SKW6223 ✈ 22-May-2013 ✈ KABQ - KLAX

Flight Track Log - Related Links

Times and Time Zones

All times are in EDT time to prevent confusion due to time zone crossing. See the SKW6223 flight status page for this flight to view local times or setup timezone preferences in your user account.

Time Position Orientation Groundspeed Altitude Reporting Facility
EDT Latitude Longitude Course Direction KTS MPH feet Rate Location/Type
06:23PM 35.0419 -106.5822 270° West 164 189 5,900  Level Albuquerque Center
06:24PM 35.0469 -106.5628 73° East 179 206 6,400 1,200 Climbing Albuquerque Center
06:24PM 35.0794 -106.5450 24° Northeast 250 288 7,100 1,740 Climbing Albuquerque Center
06:25PM 35.0994 -106.5700 314° West 262 302 8,200 2,220 Climbing Albuquerque Center
06:25PM 35.1236 -106.6108 306° West 262 302 9,400 1,860 Climbing Albuquerque Center
06:26PM 35.1314 -106.6972 276° West 259 298 11,400 2,340 Climbing Albuquerque Center
06:27PM 35.0435 -107.0651 275° West  Level FlightAware Approximate
06:27PM 35.1197 -106.7922 261° West 279 321 14,300  Level Albuquerque Center
06:28PM 35.0500 -107.1946 270° West  Level FlightAware Approximate
06:28PM 35.1078 -106.9100 263° West 301 346 16,800  Level Albuquerque Center
06:29PM 35.0500 -107.3245 270° West  Level FlightAware Approximate
06:29PM 35.0950 -107.0125 261° West 311 358 18,700  Level Albuquerque Center
06:30PM 35.0828 -107.1336 263° West 328 377 20,700 1,980 Climbing Albuquerque Center
06:31PM 35.0689 -107.2356 261° West 341 392 22,800 2,040 Climbing Albuquerque Center
06:33PM 35.0603 -107.3700 266° West 334 384 25,000 1,560 Climbing Albuquerque Center
06:34PM 35.0553 -107.4869 267° West 341 392 26,000 1,020 Climbing Albuquerque Center
06:35PM 35.0489 -107.6108 266° West 358 412 27,200 1,140 Climbing Albuquerque Center
06:36PM 35.0433 -107.7378 267° West 370 426 28,400 1,140 Climbing Albuquerque Center
06:37PM 35.0361 -107.8858 267° West 378 435 29,600 1,140 Climbing Albuquerque Center
06:38PM 35.0303 -108.0139 267° West 387 445 30,800 1,080 Climbing Albuquerque Center
06:39PM 35.0231 -108.1403 266° West 389 448 31,900 1,200 Climbing Albuquerque Center
06:40PM 35.0161 -108.2847 267° West 385 443 33,400 1,260 Climbing Albuquerque Center
06:41PM 35.0086 -108.4081 266° West 381 438 34,500 1,020 Climbing Albuquerque Center
06:42PM 35.0019 -108.5478 267° West 373 429 35,600 720 Climbing Albuquerque Center
06:43PM 34.9953 -108.6678 266° West 370 426 36,000 180 Climbing Albuquerque Center
06:44PM 34.9875 -108.8128 266° West 379 436 36,000  Level Albuquerque Center
06:45PM 34.9794 -108.9389 266° West 385 443 36,000  Level Albuquerque Center
06:46PM 34.9733 -109.0633 267° West 385 443 36,000  Level Albuquerque Center
06:47PM 34.9639 -109.2106 266° West 388 447 36,000  Level Albuquerque Center
06:48PM 34.9553 -109.3372 265° West 390 449 36,000  Level Albuquerque Center
06:49PM 34.9456 -109.4825 265° West 387 445 36,000  Level Albuquerque Center
06:50PM 34.9372 -109.6042 265° West 380 437 36,000  Level Albuquerque Center
06:51PM 34.9275 -109.7469 265° West 379 436 36,000  Level Albuquerque Center
06:52PM 34.9194 -109.8681 265° West 376 433 36,000  Level Albuquerque Center
06:53PM 34.9106 -109.9906 265° West 378 435 36,000  Level Albuquerque Center
06:54PM 34.8997 -110.1331 265° West 377 434 36,000  Level Albuquerque Center
06:55PM 34.8939 -110.2575 267° West 381 438 36,000  Level Albuquerque Center
06:56PM 34.8825 -110.3983 264° West 378 435 36,000  Level Albuquerque Center
06:57PM 34.8725 -110.5161 264° West 369 425 36,000  Level Albuquerque Center
06:58PM 34.8597 -110.6575 264° West 373 429 36,000  Level Albuquerque Center
06:59PM 34.8494 -110.7711 264° West 375 432 36,000  Level Albuquerque Center
07:00PM 34.8383 -110.8983 264° West 378 435 36,000  Level Albuquerque Center
07:01PM 34.8281 -111.0267 264° West 381 438 36,000  Level Albuquerque Center
07:02PM 34.8150 -111.1861 264° West 390 449 36,000  Level Albuquerque Center
07:03PM 34.8044 -111.3183 264° West 393 452 36,000  Level Albuquerque Center
07:04PM 34.7931 -111.4494 264° West 394 453 36,000  Level Albuquerque Center
07:05PM 34.7825 -111.5822 265° West 395 455 36,000  Level Albuquerque Center
07:07PM 34.7711 -111.7158 264° West 396 456 36,000  Level Albuquerque Center
07:08PM 34.7597 -111.8472 264° West 396 456 36,000  Level Albuquerque Center
07:09PM 34.7461 -112.0028 264° West 392 451 36,000  Level Albuquerque Center
07:10PM 34.7339 -112.1322 263° West 390 449 36,000  Level Albuquerque Center
07:11PM 34.7222 -112.2592 264° West 384 442 36,000  Level Albuquerque Center
07:12PM 34.7111 -112.3872 264° West 379 436 36,000  Level Albuquerque Center
07:13PM 34.6992 -112.5119 263° West 375 432 36,000  Level Albuquerque Center
07:14PM 34.6850 -112.6369 262° West 374 430 36,000  Level Albuquerque Center
07:15PM 34.6692 -112.7636 261° West 377 434 36,000  Level Albuquerque Center
07:16PM 34.6547 -112.8911 262° West 380 437 36,000  Level Albuquerque Center
07:17PM 34.6356 -113.0444 261° West 383 441 36,000  Level Albuquerque Center
07:18PM 34.6203 -113.1708 262° West 381 438 36,000  Level Albuquerque Center
07:19PM 34.6050 -113.2983 262° West 382 440 36,000  Level Albuquerque Center
07:20PM 34.5883 -113.4231 261° West 379 436 36,000  Level Albuquerque Center
07:21PM 34.5725 -113.5503 261° West 380 437 36,000  Level Albuquerque Center
07:22PM 34.5506 -113.6997 260° West 384 442 36,000  Level Albuquerque Center
07:23PM 34.5242 -113.8253 256° West 384 442 36,000  Level Albuquerque Center
07:24PM 34.4969 -113.9522 255° West 385 443 36,000  Level Albuquerque Center
07:25PM 34.4733 -114.0778 257° West 383 441 36,000  Level Albuquerque Center
07:26PM 34.4628 -114.1517 260° West 386 444 36,000 -120 Level Los Angeles Center
07:27PM 34.4431 -114.2789 259° West 385 443 35,900  Descending Los Angeles Center
07:28PM 34.4225 -114.4050 259° West 384 442 36,000  Climbing Los Angeles Center
07:29PM 34.4022 -114.5314 259° West 385 443 36,000  Level Los Angeles Center
07:30PM 34.3778 -114.6844 259° West 386 444 36,000  Level Los Angeles Center
07:31PM 34.3567 -114.8108 259° West 384 442 36,000  Level Los Angeles Center
07:32PM 34.3356 -114.9386 259° West 388 447 36,000  Level Los Angeles Center
07:33PM 34.3147 -115.0658 259° West 387 445 36,000  Level Los Angeles Center
07:34PM 34.2931 -115.1950 259° West 392 451 36,000  Level Los Angeles Center
07:35PM 34.2753 -115.2983 258° West 393 452 36,000  Level Los Angeles Center
07:36PM 34.2450 -115.4769 258° West 390 449 36,000  Level Los Angeles Center
07:37PM 34.2228 -115.6022 258° West 386 444 36,000  Level Los Angeles Center
07:38PM 34.2014 -115.7294 259° West 386 444 36,000  Level Los Angeles Center
07:39PM 34.1789 -115.8589 258° West 391 450 36,000  Level Los Angeles Center
07:40PM 34.1550 -115.9911 258° West 398 458 36,000  Level Los Angeles Center
07:41PM 34.1333 -116.1183 258° West 392 451 36,000 -1,260 Level Los Angeles Center
07:42PM 34.1064 -116.2736 258° West 397 457 33,500 -2,400 Descending Los Angeles Center
07:43PM 34.0833 -116.4044 258° West 399 459 30,600 -2,760 Descending Los Angeles Center
07:44PM 34.0556 -116.5592 258° West 395 455 27,300 -3,000 Descending Los Angeles Center
07:45PM 34.0319 -116.6911 258° West 404 465 24,400 -2,820 Descending Los Angeles Center
07:46PM 34.0072 -116.8222 257° West 405 466 21,500 -2,940 Descending Los Angeles Center
07:47PM 33.9833 -116.9500 257° West 380 437 18,800 -2,400 Descending Southern California TRACON
07:48PM 33.9667 -117.0667 260° West 350 403 17,000 -1,200 Descending Southern California TRACON
07:49PM 33.9500 -117.1833 260° West 320 368 16,500 -900 Descending Southern California TRACON
07:50PM 33.9333 -117.2833 259° West 323 372 15,300 -1,260 Descending Southern California TRACON
07:51PM 33.9333 -117.3833 270° West 318 366 14,000 -1,380 Descending Southern California TRACON
07:52PM 33.9667 -117.4833 292° West 309 356 12,600 -1,320 Descending Southern California TRACON
07:53PM 34.0000 -117.5833 292° West 277 319 11,400 -1,020 Descending Southern California TRACON
07:54PM 34.0000 -117.6667 270° West 273 314 10,600 -840 Descending Southern California TRACON
07:55PM 34.0000 -117.7500 270° West 226 260 9,800 -900 Descending Southern California TRACON
07:56PM 34.0000 -117.8167 270° West 232 267 8,800 -1,080 Descending Southern California TRACON
07:57PM 33.9833 -117.9000 256° West 233 268 7,700 -960 Descending Southern California TRACON
07:58PM 33.9833 -117.9833 270° West 236 272 6,900 -1,140 Descending Southern California TRACON
07:59PM 33.9667 -118.0667 256° West 236 272 5,500 -1,320 Descending Southern California TRACON
08:00PM 33.9667 -118.1333 270° West 218 251 4,300 -1,080 Descending Southern California TRACON
08:01PM 33.9608 -118.1572 254° West 223 257 3,900 -1,080 Descending Los Angeles Center
08:02PM 33.9539 -118.2317 264° West 194 223 2,600 -1,020 Descending Los Angeles Center
08:03PM 33.9472 -118.2931 263° West 189 217 1,900 -780 Descending Los Angeles Center
08:04PM 33.9422 -118.3367 262° West 152 175 1,000 -780 Descending Los Angeles Center
08:05PM 33.9392 -118.3772 265° West 133 153 300 -720 Descending Los Angeles Center